sensor_id;sensor_type;location;lat;lon;timestamp;temperature;humidity
55329;DHT22;41205;44.264;19.884;2022-09-09T00:03:54;563.60;2432.00
55329;DHT22;41205;44.264;19.884;2022-09-09T00:17:01;563.40;2432.00
55329;DHT22;41205;44.264;19.884;2022-09-09T00:19:33;563.40;2432.00
55329;DHT22;41205;44.264;19.884;2022-09-09T00:22:20;563.40;2432.00
55329;DHT22;41205;44.264;19.884;2022-09-09T00:24:46;563.50;2432.00
55329;DHT22;41205;44.264;19.884;2022-09-09T00:29:58;563.60;2432.00
55329;DHT22;41205;44.264;19.884;2022-09-09T00:32:27;563.60;2432.00
55329;DHT22;41205;44.264;19.884;2022-09-09T00:35:16;563.60;2432.00
55329;DHT22;41205;44.264;19.884;2022-09-09T00:37:41;563.60;2432.00
55329;DHT22;41205;44.264;19.884;2022-09-09T00:40:21;563.60;2432.00
55329;DHT22;41205;44.264;19.884;2022-09-09T00:42:47;563.60;2432.00
55329;DHT22;41205;44.264;19.884;2022-09-09T00:50:29;563.60;2432.00
55329;DHT22;41205;44.264;19.884;2022-09-09T00:58:06;563.50;2432.00
55329;DHT22;41205;44.264;19.884;2022-09-09T01:01:18;563.50;2432.00
55329;DHT22;41205;44.264;19.884;2022-09-09T01:03:28;563.60;2432.00
55329;DHT22;41205;44.264;19.884;2022-09-09T01:06:01;563.60;2432.00
55329;DHT22;41205;44.264;19.884;2022-09-09T01:10:58;563.60;2432.00
55329;DHT22;41205;44.264;19.884;2022-09-09T01:13:28;563.60;2432.00
55329;DHT22;41205;44.264;19.884;2022-09-09T01:15:59;563.70;2432.00
55329;DHT22;41205;44.264;19.884;2022-09-09T01:18:44;563.50;2432.00
55329;DHT22;41205;44.264;19.884;2022-09-09T01:23:53;563.50;2432.00
55329;DHT22;41205;44.264;19.884;2022-09-09T01:26:24;563.50;2432.00
55329;DHT22;41205;44.264;19.884;2022-09-09T01:28:51;563.50;2432.00
55329;DHT22;41205;44.264;19.884;2022-09-09T01:31:20;563.50;2432.00
55329;DHT22;41205;44.264;19.884;2022-09-09T01:33:46;563.40;2432.00
55329;DHT22;41205;44.264;19.884;2022-09-09T01:36:18;563.40;2432.00
55329;DHT22;41205;44.264;19.884;2022-09-09T01:38:44;563.30;2432.00
55329;DHT22;41205;44.264;19.884;2022-09-09T01:41:10;563.40;2432.00
55329;DHT22;41205;44.264;19.884;2022-09-09T01:43:36;563.40;2432.00
55329;DHT22;41205;44.264;19.884;2022-09-09T01:46:02;563.50;2432.00
55329;DHT22;41205;44.264;19.884;2022-09-09T01:48:28;563.50;2432.00
55329;DHT22;41205;44.264;19.884;2022-09-09T01:50:54;563.50;2432.00
55329;DHT22;41205;44.264;19.884;2022-09-09T01:53:20;563.50;2432.00
55329;DHT22;41205;44.264;19.884;2022-09-09T01:55:55;563.40;2432.00
55329;DHT22;41205;44.264;19.884;2022-09-09T01:58:33;563.50;2432.00
55329;DHT22;41205;44.264;19.884;2022-09-09T02:03:29;563.50;2432.00
55329;DHT22;41205;44.264;19.884;2022-09-09T02:08:47;563.40;2432.00
55329;DHT22;41205;44.264;19.884;2022-09-09T02:11:22;563.30;2432.00
55329;DHT22;41205;44.264;19.884;2022-09-09T02:13:49;563.20;2432.00
55329;DHT22;41205;44.264;19.884;2022-09-09T02:16:37;563.20;2432.00
55329;DHT22;41205;44.264;19.884;2022-09-09T02:19:08;563.20;2432.00
55329;DHT22;41205;44.264;19.884;2022-09-09T02:21:35;563.20;2432.00
55329;DHT22;41205;44.264;19.884;2022-09-09T02:24:03;563.20;2432.00
55329;DHT22;41205;44.264;19.884;2022-09-09T02:26:29;563.20;2432.00
55329;DHT22;41205;44.264;19.884;2022-09-09T02:28:57;563.20;2432.00
55329;DHT22;41205;44.264;19.884;2022-09-09T02:31:24;563.50;2432.00
55329;DHT22;41205;44.264;19.884;2022-09-09T02:33:59;563.60;2432.00
55329;DHT22;41205;44.264;19.884;2022-09-09T02:36:26;563.80;2432.00
55329;DHT22;41205;44.264;19.884;2022-09-09T02:38:54;563.90;2432.00
55329;DHT22;41205;44.264;19.884;2022-09-09T02:41:20;563.90;2432.00
55329;DHT22;41205;44.264;19.884;2022-09-09T02:43:48;563.90;2432.00
55329;DHT22;41205;44.264;19.884;2022-09-09T02:49:18;563.70;2432.00
55329;DHT22;41205;44.264;19.884;2022-09-09T02:51:51;563.60;2432.00
55329;DHT22;41205;44.264;19.884;2022-09-09T02:54:27;538.50;2406.40
55329;DHT22;41205;44.264;19.884;2022-09-09T02:56:56;538.50;2406.40
55329;DHT22;41205;44.264;19.884;2022-09-09T02:59:24;538.50;2406.40
55329;DHT22;41205;44.264;19.884;2022-09-09T03:01:50;538.50;2406.40
55329;DHT22;41205;44.264;19.884;2022-09-09T03:04:15;538.50;2406.40
55329;DHT22;41205;44.264;19.884;2022-09-09T03:06:41;538.50;2406.40
55329;DHT22;41205;44.264;19.884;2022-09-09T03:09:07;538.40;2406.40
55329;DHT22;41205;44.264;19.884;2022-09-09T03:11:33;538.50;2406.40
55329;DHT22;41205;44.264;19.884;2022-09-09T03:13:58;538.50;2406.40
55329;DHT22;41205;44.264;19.884;2022-09-09T03:16:24;538.40;2406.40
55329;DHT22;41205;44.264;19.884;2022-09-09T03:18:50;538.30;2406.40
55329;DHT22;41205;44.264;19.884;2022-09-09T03:21:16;538.30;2406.40
55329;DHT22;41205;44.264;19.884;2022-09-09T03:23:41;538.40;2406.40
55329;DHT22;41205;44.264;19.884;2022-09-09T03:26:07;538.30;2406.40
55329;DHT22;41205;44.264;19.884;2022-09-09T03:28:32;538.20;2406.40
55329;DHT22;41205;44.264;19.884;2022-09-09T03:31:04;538.10;2406.40
55329;DHT22;41205;44.264;19.884;2022-09-09T03:33:30;538.00;2406.40
55329;DHT22;41205;44.264;19.884;2022-09-09T03:35:57;537.90;2406.40
55329;DHT22;41205;44.264;19.884;2022-09-09T03:38:23;537.80;2406.40
55329;DHT22;41205;44.264;19.884;2022-09-09T03:40:52;537.80;2406.40
55329;DHT22;41205;44.264;19.884;2022-09-09T03:43:22;537.80;2406.40
55329;DHT22;41205;44.264;19.884;2022-09-09T03:45:48;537.80;2406.40
55329;DHT22;41205;44.264;19.884;2022-09-09T03:48:14;537.80;2406.40
55329;DHT22;41205;44.264;19.884;2022-09-09T03:50:46;537.80;2406.40
55329;DHT22;41205;44.264;19.884;2022-09-09T03:53:13;537.80;2406.40
55329;DHT22;41205;44.264;19.884;2022-09-09T03:55:39;537.90;2406.40
55329;DHT22;41205;44.264;19.884;2022-09-09T03:58:08;537.90;2406.40
55329;DHT22;41205;44.264;19.884;2022-09-09T04:00:33;537.90;2406.40
55329;DHT22;41205;44.264;19.884;2022-09-09T04:02:59;537.80;2406.40
55329;DHT22;41205;44.264;19.884;2022-09-09T04:05:25;537.90;2406.40
55329;DHT22;41205;44.264;19.884;2022-09-09T04:07:51;537.90;2406.40
55329;DHT22;41205;44.264;19.884;2022-09-09T04:10:16;537.90;2406.40
55329;DHT22;41205;44.264;19.884;2022-09-09T04:12:42;537.90;2406.40
55329;DHT22;41205;44.264;19.884;2022-09-09T04:15:07;537.90;2406.40
55329;DHT22;41205;44.264;19.884;2022-09-09T04:17:33;537.90;2406.40
55329;DHT22;41205;44.264;19.884;2022-09-09T04:19:59;537.80;2406.40
55329;DHT22;41205;44.264;19.884;2022-09-09T04:22:24;537.80;2406.40
55329;DHT22;41205;44.264;19.884;2022-09-09T04:24:50;537.80;2406.40
55329;DHT22;41205;44.264;19.884;2022-09-09T04:27:15;537.90;2406.40
55329;DHT22;41205;44.264;19.884;2022-09-09T04:29:41;537.90;2406.40
55329;DHT22;41205;44.264;19.884;2022-09-09T04:32:06;538.00;2406.40
55329;DHT22;41205;44.264;19.884;2022-09-09T04:34:32;537.90;2406.40
55329;DHT22;41205;44.264;19.884;2022-09-09T04:36:58;537.90;2406.40
55329;DHT22;41205;44.264;19.884;2022-09-09T04:39:24;538.00;2406.40
55329;DHT22;41205;44.264;19.884;2022-09-09T04:41:49;538.00;2406.40
55329;DHT22;41205;44.264;19.884;2022-09-09T04:44:15;538.10;2406.40
55329;DHT22;41205;44.264;19.884;2022-09-09T04:46:41;538.10;2406.40
55329;DHT22;41205;44.264;19.884;2022-09-09T04:49:06;538.20;2406.40
55329;DHT22;41205;44.264;19.884;2022-09-09T04:51:32;538.20;2406.40
55329;DHT22;41205;44.264;19.884;2022-09-09T04:53:58;538.40;2406.40
55329;DHT22;41205;44.264;19.884;2022-09-09T04:56:23;538.40;2406.40
55329;DHT22;41205;44.264;19.884;2022-09-09T04:58:52;538.50;2406.40
55329;DHT22;41205;44.264;19.884;2022-09-09T05:01:18;538.40;2406.40
55329;DHT22;41205;44.264;19.884;2022-09-09T05:03:44;538.20;2406.40
55329;DHT22;41205;44.264;19.884;2022-09-09T05:06:11;538.20;2406.40
55329;DHT22;41205;44.264;19.884;2022-09-09T05:08:37;538.30;2406.40
55329;DHT22;41205;44.264;19.884;2022-09-09T05:11:04;538.40;2406.40
55329;DHT22;41205;44.264;19.884;2022-09-09T05:13:30;538.50;2406.40
55329;DHT22;41205;44.264;19.884;2022-09-09T05:15:57;538.40;2406.40
55329;DHT22;41205;44.264;19.884;2022-09-09T05:18:22;538.50;2406.40
55329;DHT22;41205;44.264;19.884;2022-09-09T05:20:48;538.50;2406.40
55329;DHT22;41205;44.264;19.884;2022-09-09T05:23:14;538.50;2406.40
55329;DHT22;41205;44.264;19.884;2022-09-09T05:25:40;538.40;2406.40
55329;DHT22;41205;44.264;19.884;2022-09-09T05:28:08;538.40;2406.40
55329;DHT22;41205;44.264;19.884;2022-09-09T05:30:34;538.50;2406.40
55329;DHT22;41205;44.264;19.884;2022-09-09T05:33:00;538.50;2406.40
55329;DHT22;41205;44.264;19.884;2022-09-09T05:35:25;563.20;2432.00
55329;DHT22;41205;44.264;19.884;2022-09-09T05:37:51;563.50;2432.00
55329;DHT22;41205;44.264;19.884;2022-09-09T05:40:16;563.60;2432.00
55329;DHT22;41205;44.264;19.884;2022-09-09T05:42:42;563.80;2432.00
55329;DHT22;41205;44.264;19.884;2022-09-09T05:45:08;564.10;2432.00
55329;DHT22;41205;44.264;19.884;2022-09-09T05:47:34;588.80;2432.00
55329;DHT22;41205;44.264;19.884;2022-09-09T05:50:00;589.30;2432.00
55329;DHT22;41205;44.264;19.884;2022-09-09T05:52:26;589.70;2432.00
55329;DHT22;41205;44.264;19.884;2022-09-09T05:54:52;614.60;2432.00
55329;DHT22;41205;44.264;19.884;2022-09-09T05:57:19;614.40;2432.00
55329;DHT22;41205;44.264;19.884;2022-09-09T05:59:45;614.60;2432.00
55329;DHT22;41205;44.264;19.884;2022-09-09T06:02:11;614.70;2432.00
55329;DHT22;41205;44.264;19.884;2022-09-09T06:04:37;614.60;2432.00
55329;DHT22;41205;44.264;19.884;2022-09-09T06:07:04;614.90;2432.00
55329;DHT22;41205;44.264;19.884;2022-09-09T06:09:29;614.90;2432.00
55329;DHT22;41205;44.264;19.884;2022-09-09T06:11:55;615.10;2432.00
55329;DHT22;41205;44.264;19.884;2022-09-09T06:14:23;615.00;2432.00
55329;DHT22;41205;44.264;19.884;2022-09-09T06:16:50;615.20;2432.00
55329;DHT22;41205;44.264;19.884;2022-09-09T06:19:16;640.30;2432.00
55329;DHT22;41205;44.264;19.884;2022-09-09T06:21:42;640.50;2432.00
55329;DHT22;41205;44.264;19.884;2022-09-09T06:24:07;640.70;2432.00
55329;DHT22;41205;44.264;19.884;2022-09-09T06:28:59;665.90;2432.00
55329;DHT22;41205;44.264;19.884;2022-09-09T06:31:26;691.40;2432.00
55329;DHT22;41205;44.264;19.884;2022-09-09T06:33:55;691.80;2432.00
55329;DHT22;41205;44.264;19.884;2022-09-09T06:36:22;692.10;2432.00
55329;DHT22;41205;44.264;19.884;2022-09-09T06:38:48;716.90;2432.00
55329;DHT22;41205;44.264;19.884;2022-09-09T06:41:15;717.60;2432.00
55329;DHT22;41205;44.264;19.884;2022-09-09T06:43:41;743.30;2380.80
55329;DHT22;41205;44.264;19.884;2022-09-09T06:48:33;768.90;2227.20
55329;DHT22;41205;44.264;19.884;2022-09-09T06:51:06;794.10;2124.80
55329;DHT22;41205;44.264;19.884;2022-09-09T06:53:32;794.40;2048.00
55329;DHT22;41205;44.264;19.884;2022-09-09T06:58:44;819.30;1920.00
55329;DHT22;41205;44.264;19.884;2022-09-09T07:01:14;819.40;1945.60
55329;DHT22;41205;44.264;19.884;2022-09-09T07:03:40;819.70;1971.20
55329;DHT22;41205;44.264;19.884;2022-09-09T07:06:06;819.30;1945.60
55329;DHT22;41205;44.264;19.884;2022-09-09T07:08:32;819.30;1945.60
55329;DHT22;41205;44.264;19.884;2022-09-09T07:11:02;794.20;1945.60
55329;DHT22;41205;44.264;19.884;2022-09-09T07:13:27;794.10;1945.60
55329;DHT22;41205;44.264;19.884;2022-09-09T07:15:53;819.60;1894.40
55329;DHT22;41205;44.264;19.884;2022-09-09T07:18:19;819.60;1868.80
55329;DHT22;41205;44.264;19.884;2022-09-09T07:20:54;819.40;1843.20
55329;DHT22;41205;44.264;19.884;2022-09-09T07:23:20;819.90;1817.60
55329;DHT22;41205;44.264;19.884;2022-09-09T07:25:46;845.50;1817.60
55329;DHT22;41205;44.264;19.884;2022-09-09T07:28:12;870.90;1740.80
55329;DHT22;41205;44.264;19.884;2022-09-09T07:30:38;896.30;1689.60
55329;DHT22;41205;44.264;19.884;2022-09-09T07:33:04;896.20;1689.60
55329;DHT22;41205;44.264;19.884;2022-09-09T07:35:30;921.70;1638.40
55329;DHT22;41205;44.264;19.884;2022-09-09T07:37:55;947.80;1510.40
55329;DHT22;41205;44.264;19.884;2022-09-09T07:40:21;973.20;1433.60
55329;DHT22;41205;44.264;19.884;2022-09-09T07:42:47;1024.40;1331.20
55329;DHT22;41205;44.264;19.884;2022-09-09T07:45:13;1024.60;1305.60
55329;DHT22;41205;44.264;19.884;2022-09-09T07:47:39;1024.10;1356.80
55329;DHT22;41205;44.264;19.884;2022-09-09T07:50:08;1050.40;1305.60
55329;DHT22;41205;44.264;19.884;2022-09-09T07:52:34;1076.10;1228.80
55329;DHT22;41205;44.264;19.884;2022-09-09T07:55:00;1126.70;1203.20
55329;DHT22;41205;44.264;19.884;2022-09-09T07:57:28;1127.10;1203.20
55329;DHT22;41205;44.264;19.884;2022-09-09T07:59:55;1177.70;1075.20
55329;DHT22;41205;44.264;19.884;2022-09-09T08:02:21;1152.90;1126.40
55329;DHT22;41205;44.264;19.884;2022-09-09T08:04:48;1152.60;1152.00
55329;DHT22;41205;44.264;19.884;2022-09-09T08:07:13;1127.10;1177.60
55329;DHT22;41205;44.264;19.884;2022-09-09T08:09:39;1177.80;1100.80
55329;DHT22;41205;44.264;19.884;2022-09-09T08:12:04;1178.50;1024.00
55329;DHT22;41205;44.264;19.884;2022-09-09T08:14:34;1203.20;1075.20
55329;DHT22;41205;44.264;19.884;2022-09-09T08:16:59;1203.40;1049.60
55329;DHT22;41205;44.264;19.884;2022-09-09T08:19:25;1203.70;1049.60
55329;DHT22;41205;44.264;19.884;2022-09-09T08:21:51;1178.30;1049.60
55329;DHT22;41205;44.264;19.884;2022-09-09T08:24:17;1178.20;1049.60
55329;DHT22;41205;44.264;19.884;2022-09-09T08:26:45;1178.30;1049.60
55329;DHT22;41205;44.264;19.884;2022-09-09T08:29:12;1178.20;1049.60
55329;DHT22;41205;44.264;19.884;2022-09-09T08:31:40;1203.40;1049.60
55329;DHT22;41205;44.264;19.884;2022-09-09T08:34:06;1203.40;1024.00
55329;DHT22;41205;44.264;19.884;2022-09-09T08:36:33;1203.90;998.40
55329;DHT22;41205;44.264;19.884;2022-09-09T08:38:59;1178.10;998.40
55329;DHT22;41205;44.264;19.884;2022-09-09T08:44:02;1152.90;1024.00
55329;DHT22;41205;44.264;19.884;2022-09-09T08:52:00;1024.60;1152.00
55329;DHT22;41205;44.264;19.884;2022-09-09T08:54:27;998.90;1228.80
55329;DHT22;41205;44.264;19.884;2022-09-09T08:56:53;947.90;1280.00
55329;DHT22;41205;44.264;19.884;2022-09-09T08:59:18;922.00;1331.20
55329;DHT22;41205;44.264;19.884;2022-09-09T09:01:52;870.90;1382.40
55329;DHT22;41205;44.264;19.884;2022-09-09T09:11:58;896.20;1382.40
55329;DHT22;41205;44.264;19.884;2022-09-09T09:14:27;871.30;1408.00
55329;DHT22;41205;44.264;19.884;2022-09-09T09:19:19;871.20;1382.40
55329;DHT22;41205;44.264;19.884;2022-09-09T09:21:50;870.90;1408.00
55329;DHT22;41205;44.264;19.884;2022-09-09T09:26:42;845.70;1408.00
55329;DHT22;41205;44.264;19.884;2022-09-09T09:29:09;844.80;1459.20
55329;DHT22;41205;44.264;19.884;2022-09-09T09:31:36;820.10;1433.60
55329;DHT22;41205;44.264;19.884;2022-09-09T09:34:01;820.10;1484.80
55329;DHT22;41205;44.264;19.884;2022-09-09T09:36:34;844.80;1536.00
55329;DHT22;41205;44.264;19.884;2022-09-09T09:39:02;820.10;1408.00
55329;DHT22;41205;44.264;19.884;2022-09-09T09:41:29;819.50;1433.60
55329;DHT22;41205;44.264;19.884;2022-09-09T09:43:55;819.50;1459.20
55329;DHT22;41205;44.264;19.884;2022-09-09T09:46:22;819.30;1510.40
55329;DHT22;41205;44.264;19.884;2022-09-09T09:48:58;819.50;1459.20
55329;DHT22;41205;44.264;19.884;2022-09-09T09:51:24;819.80;1459.20
55329;DHT22;41205;44.264;19.884;2022-09-09T09:53:50;819.80;1536.00
55329;DHT22;41205;44.264;19.884;2022-09-09T09:56:18;819.30;1536.00
55329;DHT22;41205;44.264;19.884;2022-09-09T09:58:51;794.40;1561.60
55329;DHT22;41205;44.264;19.884;2022-09-09T10:01:36;794.40;1612.80
55329;DHT22;41205;44.264;19.884;2022-09-09T10:04:03;819.70;1612.80
55329;DHT22;41205;44.264;19.884;2022-09-09T10:06:38;819.30;1561.60
55329;DHT22;41205;44.264;19.884;2022-09-09T10:09:20;794.50;1587.20
55329;DHT22;41205;44.264;19.884;2022-09-09T10:11:49;819.20;1587.20
55329;DHT22;41205;44.264;19.884;2022-09-09T10:19:31;793.70;1664.00
55329;DHT22;41205;44.264;19.884;2022-09-09T10:39:48;819.30;1638.40
55329;DHT22;41205;44.264;19.884;2022-09-09T10:42:18;819.30;1664.00
55329;DHT22;41205;44.264;19.884;2022-09-09T10:55:14;819.60;1638.40
55329;DHT22;41205;44.264;19.884;2022-09-09T10:57:41;819.30;1587.20
55329;DHT22;41205;44.264;19.884;2022-09-09T11:00:19;819.50;1587.20
55329;DHT22;41205;44.264;19.884;2022-09-09T11:02:45;794.40;1638.40
55329;DHT22;41205;44.264;19.884;2022-09-09T11:05:20;794.20;1664.00
55329;DHT22;41205;44.264;19.884;2022-09-09T11:07:47;793.80;1715.20
55329;DHT22;41205;44.264;19.884;2022-09-09T11:10:17;793.80;1664.00
55329;DHT22;41205;44.264;19.884;2022-09-09T11:43:55;819.80;1638.40
55329;DHT22;41205;44.264;19.884;2022-09-09T11:51:34;819.80;1612.80
55329;DHT22;41205;44.264;19.884;2022-09-09T11:56:44;820.00;1612.80
55329;DHT22;41205;44.264;19.884;2022-09-09T11:59:20;819.60;1587.20
55329;DHT22;41205;44.264;19.884;2022-09-09T12:01:50;820.00;1587.20
55329;DHT22;41205;44.264;19.884;2022-09-09T12:04:17;819.30;1612.80
55329;DHT22;41205;44.264;19.884;2022-09-09T12:06:49;819.20;1612.80
55329;DHT22;41205;44.264;19.884;2022-09-09T12:09:18;819.30;1612.80
55329;DHT22;41205;44.264;19.884;2022-09-09T12:11:44;819.30;1612.80
55329;DHT22;41205;44.264;19.884;2022-09-09T12:14:35;794.50;1612.80
55329;DHT22;41205;44.264;19.884;2022-09-09T12:19:42;819.50;1587.20
55329;DHT22;41205;44.264;19.884;2022-09-09T12:22:12;819.20;1612.80
55329;DHT22;41205;44.264;19.884;2022-09-09T12:24:49;794.50;1638.40
55329;DHT22;41205;44.264;19.884;2022-09-09T12:27:21;794.50;1638.40
55329;DHT22;41205;44.264;19.884;2022-09-09T12:32:16;794.20;1638.40
55329;DHT22;41205;44.264;19.884;2022-09-09T12:34:47;768.90;1638.40
55329;DHT22;41205;44.264;19.884;2022-09-09T12:39:45;768.90;1664.00
55329;DHT22;41205;44.264;19.884;2022-09-09T12:42:18;793.70;1689.60
55329;DHT22;41205;44.264;19.884;2022-09-09T12:44:51;768.60;1664.00
55329;DHT22;41205;44.264;19.884;2022-09-09T12:47:16;768.70;1638.40
55329;DHT22;41205;44.264;19.884;2022-09-09T12:49:43;768.90;1612.80
55329;DHT22;41205;44.264;19.884;2022-09-09T12:52:13;793.70;1715.20
55329;DHT22;41205;44.264;19.884;2022-09-09T12:54:44;794.10;1689.60
55329;DHT22;41205;44.264;19.884;2022-09-09T12:57:12;794.20;1638.40
55329;DHT22;41205;44.264;19.884;2022-09-09T12:59:39;794.00;1612.80
55329;DHT22;41205;44.264;19.884;2022-09-09T13:02:44;793.90;1638.40
55329;DHT22;41205;44.264;19.884;2022-09-09T13:05:05;793.60;1689.60
55329;DHT22;41205;44.264;19.884;2022-09-09T13:07:31;768.90;1715.20
55329;DHT22;41205;44.264;19.884;2022-09-09T13:09:56;768.90;1689.60
55329;DHT22;41205;44.264;19.884;2022-09-09T13:12:22;768.80;1689.60
55329;DHT22;41205;44.264;19.884;2022-09-09T13:14:49;768.50;1689.60
55329;DHT22;41205;44.264;19.884;2022-09-09T13:17:20;768.60;1689.60
55329;DHT22;41205;44.264;19.884;2022-09-09T13:19:46;793.60;1689.60
55329;DHT22;41205;44.264;19.884;2022-09-09T13:22:33;793.60;1715.20
55329;DHT22;41205;44.264;19.884;2022-09-09T13:24:59;794.10;1689.60
55329;DHT22;41205;44.264;19.884;2022-09-09T13:27:41;794.00;1664.00
55329;DHT22;41205;44.264;19.884;2022-09-09T13:30:20;768.70;1664.00
55329;DHT22;41205;44.264;19.884;2022-09-09T13:32:59;793.70;1689.60
55329;DHT22;41205;44.264;19.884;2022-09-09T13:35:26;793.80;1689.60
55329;DHT22;41205;44.264;19.884;2022-09-09T13:37:51;793.90;1638.40
55329;DHT22;41205;44.264;19.884;2022-09-09T13:40:18;794.00;1715.20
55329;DHT22;41205;44.264;19.884;2022-09-09T13:42:44;794.20;1689.60
55329;DHT22;41205;44.264;19.884;2022-09-09T13:45:20;794.10;1689.60
55329;DHT22;41205;44.264;19.884;2022-09-09T13:47:47;794.30;1715.20
55329;DHT22;41205;44.264;19.884;2022-09-09T13:52:49;794.00;1689.60
55329;DHT22;41205;44.264;19.884;2022-09-09T13:55:17;794.00;1664.00
55329;DHT22;41205;44.264;19.884;2022-09-09T14:00:17;768.80;1664.00
55329;DHT22;41205;44.264;19.884;2022-09-09T14:02:43;793.70;1715.20
55329;DHT22;41205;44.264;19.884;2022-09-09T14:05:09;768.90;1689.60
55329;DHT22;41205;44.264;19.884;2022-09-09T14:07:37;768.90;1664.00
55329;DHT22;41205;44.264;19.884;2022-09-09T14:10:04;768.70;1689.60
55329;DHT22;41205;44.264;19.884;2022-09-09T14:12:30;768.40;1740.80
55329;DHT22;41205;44.264;19.884;2022-09-09T14:14:55;768.60;1689.60
55329;DHT22;41205;44.264;19.884;2022-09-09T14:17:21;768.60;1715.20
55329;DHT22;41205;44.264;19.884;2022-09-09T14:19:47;768.50;1715.20
55329;DHT22;41205;44.264;19.884;2022-09-09T14:22:13;768.60;1715.20
55329;DHT22;41205;44.264;19.884;2022-09-09T14:24:38;768.60;1715.20
55329;DHT22;41205;44.264;19.884;2022-09-09T14:27:04;768.40;1715.20
55329;DHT22;41205;44.264;19.884;2022-09-09T14:29:29;768.10;1740.80
55329;DHT22;41205;44.264;19.884;2022-09-09T14:31:55;768.00;1740.80
55329;DHT22;41205;44.264;19.884;2022-09-09T14:34:20;743.30;1740.80
55329;DHT22;41205;44.264;19.884;2022-09-09T14:36:46;743.30;1766.40
55329;DHT22;41205;44.264;19.884;2022-09-09T14:39:12;743.20;1766.40
55329;DHT22;41205;44.264;19.884;2022-09-09T14:41:38;743.30;1766.40
55329;DHT22;41205;44.264;19.884;2022-09-09T14:44:03;743.30;1766.40
55329;DHT22;41205;44.264;19.884;2022-09-09T14:46:29;768.00;1740.80
55329;DHT22;41205;44.264;19.884;2022-09-09T14:48:56;743.30;1740.80
55329;DHT22;41205;44.264;19.884;2022-09-09T14:51:22;743.10;1766.40
55329;DHT22;41205;44.264;19.884;2022-09-09T14:53:50;743.30;1766.40
55329;DHT22;41205;44.264;19.884;2022-09-09T14:56:17;743.10;1766.40
55329;DHT22;41205;44.264;19.884;2022-09-09T14:58:44;743.10;1792.00
55329;DHT22;41205;44.264;19.884;2022-09-09T15:01:14;743.30;1792.00
55329;DHT22;41205;44.264;19.884;2022-09-09T15:03:40;743.10;1792.00
55329;DHT22;41205;44.264;19.884;2022-09-09T15:06:07;743.10;1792.00
55329;DHT22;41205;44.264;19.884;2022-09-09T15:08:34;743.20;1792.00
55329;DHT22;41205;44.264;19.884;2022-09-09T15:11:03;743.10;1792.00
55329;DHT22;41205;44.264;19.884;2022-09-09T15:13:29;743.00;1792.00
55329;DHT22;41205;44.264;19.884;2022-09-09T15:15:55;743.00;1792.00
55329;DHT22;41205;44.264;19.884;2022-09-09T15:18:21;743.10;1817.60
55329;DHT22;41205;44.264;19.884;2022-09-09T15:20:46;743.10;1817.60
55329;DHT22;41205;44.264;19.884;2022-09-09T15:23:13;743.00;1792.00
55329;DHT22;41205;44.264;19.884;2022-09-09T15:45:06;742.90;1817.60
55329;DHT22;41205;44.264;19.884;2022-09-09T15:47:32;742.50;1894.40
55329;DHT22;41205;44.264;19.884;2022-09-09T15:49:58;742.40;1894.40
55329;DHT22;41205;44.264;19.884;2022-09-09T15:52:24;742.40;1920.00
55329;DHT22;41205;44.264;19.884;2022-09-09T15:54:49;742.40;1920.00
55329;DHT22;41205;44.264;19.884;2022-09-09T15:57:15;717.70;1920.00
55329;DHT22;41205;44.264;19.884;2022-09-09T15:59:41;717.60;1945.60
55329;DHT22;41205;44.264;19.884;2022-09-09T16:02:06;717.60;1920.00
55329;DHT22;41205;44.264;19.884;2022-09-09T16:04:32;717.70;1920.00
55329;DHT22;41205;44.264;19.884;2022-09-09T16:07:02;717.60;1945.60
55329;DHT22;41205;44.264;19.884;2022-09-09T16:09:29;717.60;1971.20
55329;DHT22;41205;44.264;19.884;2022-09-09T16:12:02;717.50;1945.60
55329;DHT22;41205;44.264;19.884;2022-09-09T16:14:28;717.40;1971.20
55329;DHT22;41205;44.264;19.884;2022-09-09T16:16:54;717.40;1971.20
55329;DHT22;41205;44.264;19.884;2022-09-09T16:19:19;717.30;1996.80
55329;DHT22;41205;44.264;19.884;2022-09-09T16:21:46;717.20;2048.00
55329;DHT22;41205;44.264;19.884;2022-09-09T16:24:12;717.20;2022.40
55329;DHT22;41205;44.264;19.884;2022-09-09T16:26:39;717.20;2022.40
55329;DHT22;41205;44.264;19.884;2022-09-09T16:29:05;717.00;2022.40
55329;DHT22;41205;44.264;19.884;2022-09-09T16:31:33;717.20;2048.00
55329;DHT22;41205;44.264;19.884;2022-09-09T16:34:02;717.10;2073.60
55329;DHT22;41205;44.264;19.884;2022-09-09T16:36:29;717.00;2099.20
55329;DHT22;41205;44.264;19.884;2022-09-09T16:38:56;716.80;2124.80
55329;DHT22;41205;44.264;19.884;2022-09-09T16:41:22;716.80;2150.40
55329;DHT22;41205;44.264;19.884;2022-09-09T16:43:58;692.10;2176.00
55329;DHT22;41205;44.264;19.884;2022-09-09T16:46:25;692.10;2176.00
55329;DHT22;41205;44.264;19.884;2022-09-09T16:48:51;691.90;2227.20
55329;DHT22;41205;44.264;19.884;2022-09-09T16:54:20;691.70;2329.60
55329;DHT22;41205;44.264;19.884;2022-09-09T16:56:47;691.70;2406.40
55329;DHT22;41205;44.264;19.884;2022-09-09T16:59:14;691.60;2432.00
55329;DHT22;41205;44.264;19.884;2022-09-09T17:01:40;691.60;2432.00
55329;DHT22;41205;44.264;19.884;2022-09-09T17:04:08;691.60;2432.00
55329;DHT22;41205;44.264;19.884;2022-09-09T17:09:37;691.50;2432.00
55329;DHT22;41205;44.264;19.884;2022-09-09T17:12:02;691.50;2432.00
55329;DHT22;41205;44.264;19.884;2022-09-09T17:14:28;691.40;2432.00
55329;DHT22;41205;44.264;19.884;2022-09-09T17:16:56;691.40;2432.00
55329;DHT22;41205;44.264;19.884;2022-09-09T17:19:22;691.40;2432.00
55329;DHT22;41205;44.264;19.884;2022-09-09T17:24:51;691.20;2432.00
55329;DHT22;41205;44.264;19.884;2022-09-09T17:27:16;666.50;2432.00
55329;DHT22;41205;44.264;19.884;2022-09-09T17:29:42;666.50;2432.00
55329;DHT22;41205;44.264;19.884;2022-09-09T17:32:08;666.50;2432.00
55329;DHT22;41205;44.264;19.884;2022-09-09T17:34:34;666.30;2432.00
55329;DHT22;41205;44.264;19.884;2022-09-09T17:36:59;666.30;2432.00
55329;DHT22;41205;44.264;19.884;2022-09-09T17:39:25;666.20;2432.00